Time;durP1;ratioP1;P1;durP2;ratioP2;P2;SDS_P1;SDS_P2;PMS_P1;PMS_P2;Temp;Humidity;BMP_temperature;BMP_pressure;BME280_temperature;BME280_humidity;BME280_pressure;Samples;Min_cycle;Max_cycle;Signal;HPM_P1;HPM_P2
2022/06/10 20:16:38;;;;;;;2.72;1.48;;;23.50;53.60;;;;;;318327;27;20844;-45
2022/06/10 20:16:48;;;;;;;2.63;1.80;;;23.50;54.50;;;;;;346226;28;1244;-46
2022/06/10 20:17:00;;;;;;;3.17;1.80;;;23.40;54.40;;;;;;309914;28;11734;-46
2022/06/10 20:17:22;;;;;;;3.20;1.90;;;23.40;54.40;;;;;;345188;28;1097;-46
2022/06/10 20:17:36;;;;;;;3.17;1.80;;;23.50;54.40;;;;;;343712;28;1286;-46
2022/06/10 20:17:48;;;;;;;3.33;1.88;;;23.50;54.50;;;;;;343665;28;1647;-43
2022/06/10 20:17:59;;;;;;;2.90;1.90;;;23.40;54.40;;;;;;343900;28;891;-44
2022/06/10 20:18:21;;;;;;;2.88;1.90;;;23.40;54.40;;;;;;343782;28;1366;-46
2022/06/10 20:18:37;;;;;;;3.75;1.92;;;23.50;54.40;;;;;;334550;28;1360;-45
2022/06/10 20:18:52;;;;;;;3.45;2.00;;;23.50;54.40;;;;;;313699;28;74842;-45
2022/06/10 20:19:02;;;;;;;3.00;2.13;;;23.50;54.40;;;;;;342369;28;1270;-46
2022/06/10 20:19:15;;;;;;;2.88;1.90;;;23.50;54.40;;;;;;342404;28;1387;-47
2022/06/10 20:19:30;;;;;;;2.97;1.90;;;23.50;54.50;;;;;;342322;28;1461;-45
2022/06/10 20:19:42;;;;;;;3.40;1.90;;;23.50;54.40;;;;;;340148;29;1294;-45
2022/06/10 20:19:53;;;;;;;3.42;2.00;;;23.50;54.50;;;;;;342085;28;1004;-48
2022/06/10 20:20:21;;;;;;;3.33;2.00;;;23.50;54.30;;;;;;342480;28;1340;-44
2022/06/10 20:20:35;;;;;;;2.72;1.88;;;23.50;54.20;;;;;;341817;28;1225;-45
2022/06/10 20:20:47;;;;;;;2.78;1.88;;;23.50;54.20;;;;;;341854;28;1295;-46
2022/06/10 20:20:58;;;;;;;2.72;1.73;;;23.60;54.30;;;;;;341166;28;1357;-45
2022/06/10 20:21:12;;;;;;;2.70;1.70;;;23.60;54.20;;;;;;343721;28;1224;-47
2022/06/10 20:21:25;;;;;;;2.40;1.73;;;23.60;54.20;;;;;;342420;28;1161;-45
2022/06/10 20:21:36;;;;;;;2.50;1.63;;;23.60;54.20;;;;;;342416;28;1230;-45
2022/06/10 20:21:47;;;;;;;2.38;1.50;;;23.60;54.20;;;;;;341090;28;1276;-46
2022/06/10 20:21:58;;;;;;;2.13;1.58;;;23.60;54.10;;;;;;341308;29;836;-48
2022/06/10 20:22:13;;;;;;;2.27;1.70;;;23.60;54.10;;;;;;341076;28;1174;-46
2022/06/10 20:22:28;;;;;;;3.40;1.90;;;23.60;54.10;;;;;;341169;29;1044;-47
2022/06/10 20:22:38;;;;;;;3.83;2.00;;;23.60;54.20;;;;;;342345;28;1300;-46
2022/06/10 20:22:50;;;;;;;3.15;1.80;;;23.60;54.10;;;;;;342483;28;1188;-47
2022/06/10 20:23:02;;;;;;;3.53;2.00;;;23.60;53.90;;;;;;342497;28;1026;-47
2022/06/10 20:23:13;;;;;;;3.30;1.98;;;23.60;54.00;;;;;;341098;28;1428;-46
2022/06/10 20:23:26;;;;;;;2.80;1.83;;;23.60;53.90;;;;;;339800;29;1258;-47
2022/06/10 20:23:40;;;;;;;3.35;1.77;;;23.70;54.00;;;;;;339794;29;1117;-46
2022/06/10 20:23:52;;;;;;;2.97;1.67;;;23.70;54.00;;;;;;334173;28;71669;-45
2022/06/10 20:24:04;;;;;;;2.63;1.60;;;23.70;54.00;;;;;;341576;28;1507;-45
2022/06/10 20:24:17;;;;;;;3.35;1.70;;;23.70;54.00;;;;;;306744;28;11737;-45
2022/06/10 20:24:29;;;;;;;3.50;1.70;;;23.70;54.00;;;;;;342721;28;1042;-44
2022/06/10 20:24:40;;;;;;;3.42;1.80;;;23.70;53.90;;;;;;345068;28;1318;-44
2022/06/10 20:24:51;;;;;;;2.63;1.77;;;23.70;53.90;;;;;;345150;28;1137;-46
2022/06/10 20:25:02;;;;;;;2.88;1.67;;;23.70;53.90;;;;;;345095;28;1026;-47
2022/06/10 20:25:22;;;;;;;2.40;1.52;;;23.70;53.90;;;;;;345197;28;1023;-45
2022/06/10 20:25:37;;;;;;;2.58;1.60;;;23.70;53.90;;;;;;346425;28;1259;-43
2022/06/10 20:25:52;;;;;;;3.25;1.80;;;23.80;54.00;;;;;;344962;28;1437;-44
2022/06/10 20:26:07;;;;;;;3.10;1.70;;;23.70;53.90;;;;;;345153;28;1170;-44
2022/06/10 20:26:38;;;;;;;2.33;1.52;;;23.80;53.80;;;;;;342393;28;1188;-47
2022/06/10 20:26:48;;;;;;;3.00;1.75;;;23.80;53.80;;;;;;342190;28;1161;-46
2022/06/10 20:26:59;;;;;;;3.40;1.87;;;23.80;53.80;;;;;;343841;28;832;-46
2022/06/10 20:27:10;;;;;;;3.23;1.70;;;23.80;53.80;;;;;;342437;28;824;-48
2022/06/10 20:27:21;;;;;;;2.72;1.70;;;23.80;53.80;;;;;;316552;28;10212;-43
2022/06/10 20:27:31;;;;;;;2.13;1.60;;;23.80;53.80;;;;;;339742;29;1220;-45
2022/06/10 20:27:42;;;;;;;2.50;1.60;;;23.80;54.40;;;;;;341611;28;1242;-44
2022/06/10 20:27:53;;;;;;;2.60;1.55;;;23.80;53.80;;;;;;342494;28;880;-44
2022/06/10 20:28:07;;;;;;;2.55;1.50;;;23.80;53.80;;;;;;341070;28;1445;-44
2022/06/10 20:28:18;;;;;;;2.28;1.50;;;23.80;53.80;;;;;;342435;28;1102;-45
2022/06/10 20:28:29;;;;;;;2.17;1.50;;;23.80;53.80;;;;;;340820;28;1422;-44
2022/06/10 20:28:39;;;;;;;2.38;1.52;;;23.80;53.70;;;;;;342384;28;1577;-44
2022/06/10 20:28:50;;;;;;;2.70;1.58;;;23.80;53.70;;;;;;343823;28;1257;-44
2022/06/10 20:29:03;;;;;;;2.47;1.60;;;23.80;53.70;;;;;;343832;28;892;-46
2022/06/10 20:29:14;;;;;;;2.45;1.73;;;23.80;53.70;;;;;;343682;28;1485;-46
2022/06/10 20:29:25;;;;;;;2.33;1.80;;;23.80;53.70;;;;;;342468;28;1220;-45
2022/06/10 20:29:35;;;;;;;2.53;1.80;;;23.80;53.70;;;;;;342442;28;1162;-44
2022/06/10 20:29:46;;;;;;;2.30;1.60;;;23.80;53.70;;;;;;342527;28;1058;-44
2022/06/10 20:29:57;;;;;;;2.35;1.50;;;23.90;53.80;;;;;;342293;28;1308;-43
2022/06/10 20:30:08;;;;;;;2.57;1.60;;;23.90;53.70;;;;;;342703;28;974;-48
2022/06/10 20:30:20;;;;;;;2.88;1.70;;;23.80;53.60;;;;;;342435;28;1396;-45
2022/06/10 20:30:30;;;;;;;3.15;1.65;;;23.80;53.60;;;;;;342431;28;1113;-47
2022/06/10 20:30:44;;;;;;;2.95;1.52;;;23.80;53.60;;;;;;342436;28;1339;-45
2022/06/10 20:30:58;;;;;;;2.50;1.55;;;23.90;53.70;;;;;;342372;28;929;-46
2022/06/10 20:31:19;;;;;;;2.17;1.50;;;23.90;53.70;;;;;;342495;28;848;-46
2022/06/10 20:31:34;;;;;;;2.63;1.60;;;23.90;53.60;;;;;;342511;28;824;-45
2022/06/10 20:31:49;;;;;;;2.83;1.80;;;23.90;53.60;;;;;;342452;28;907;-45
2022/06/10 20:32:00;;;;;;;2.10;1.60;;;23.90;53.60;;;;;;341077;28;1369;-45
2022/06/10 20:32:25;;;;;;;2.03;1.50;;;23.90;53.60;;;;;;328078;28;9517;-45
2022/06/10 20:32:35;;;;;;;2.35;1.65;;;23.90;53.60;;;;;;305079;28;14086;-46
2022/06/10 20:32:54;;;;;;;2.30;1.70;;;23.90;53.60;;;;;;343786;28;1014;-44
2022/06/10 20:33:18;;;;;;;2.20;1.50;;;23.90;53.50;;;;;;308121;28;67357;-44
